To NAV CANADA Home Page Login to a new session Search on AWWS site Feedback and Comments Disclaimer Vers la page française équivalente Tips FAQ What's new on the site To the Forecasts and Observations / NOTAM section To "File a Flight Plan" website Publications and other links Update of the User's profile FIC Telephone Numbers My Weather Data Folder Route Weather Data Regional Weather Data Local Weather Data To the Forecasts and Observations / NOTAM section
Request Generated 09/03/2015 at 19:08:51 UTC . Weather information available at that time is displayed.

METAR/TAF

HALIFAX/SHEARWATER/NS    

METAR CYAW 031900Z CCB 18005KT 12SM TS FEW035 FEW040TCU SCT220 25/21 A2978 RMK CU1TCU2CI2 DA1776FT CB EMBD MOVG SE OCNL LTGICCCCG SL
P083=
METAR CYAW 031900Z CCA 18005KT 12SM TS FEW035 FEW040TCU SCT220 25/21 A2978 RMK CU1TCU2CI2 DA1776FT CB EMBD MOVG NE OCNL LTGICCCCG SL
P083=
METAR CYAW 031900Z 18005KT 12SM FEW035 FEW040TCU SCT220 25/21 A2978 RMK CU1TCU2CI2 DA1776FT CB EMBD MOVG NE OCNL LTGICCCCG SLP083=
SPECI CYAW 031822Z 24006KT 10SM TS FEW028 SCT030TCU BKN240 27/20 A2978 RMK CU2TCU2CI2 DA1975FT CB SW QUAD MOVG NE OCNL LTGICCCCG SLP
084=
METAR CYAW 031800Z 28002KT 12SM FEW028 FEW030TCU BKN240 26/21 A2977 RMK CU1TCU2CI1 DA1987FT SLP082=
SPECI CYAW 031745Z 18006KT 12SM FEW028 SCT030TCU SCT040 BKN240 25/22 A2978 RMK CU1TCU2SC1CI1 DA1841FT SLP084=
SPECI CYAW 031712Z CCA 34016KT 10SM -TSRA FEW030 BKN040TCU OVC240 25/21 A2978 RMK CU2TCU3CI2 DA1763FT CB EMBD MOVG NE OCNL LTGICCCCG
SLP084=
SPECI CYAW 031712Z 34016KT 10SM -TSRA FEW030 BKN040TCU OVC240 25/21 A2978 RMK CU2TCU3CI2 DA1763FT CB EMBD MOVG NE OCNL LTGICCCCG SLP
084=
METAR CYAW 031700Z 34005KT 15SM FEW030 BKN040TCU BKN052 BKN240 26/22 A2977 RMK CU2TCU3SC1CI1 DA2009FT SLP082=

TAF AMD CYAW 031721Z 0317/0402 30010KT P6SM SCT030 BKN060 TEMPO
0317/0319 2SM +TSRA BKN015 BKN030CB
FM031900 32008KT P6SM SCT030 BKN060 TEMPO 0319/0322 P6SM -SHRA
BKN030
FM032200 35008KT P6SM BKN040
FM040000 02010KT P6SM FEW040
RMK NXT FCST BY 032000Z=
Your time UTC time
Weather data provided by Environment Canada and NAV CANADA